sensor_id;sensor_type;location;lat;lon;timestamp;P1;durP1;ratioP1;P2;durP2;ratioP2
59418;SDS011;45224;50.904;6.038;2022-12-08T00:00:53;31.30;;;16.77;;
59418;SDS011;45224;50.904;6.038;2022-12-08T00:02:23;32.33;;;16.97;;
59418;SDS011;45224;50.904;6.038;2022-12-08T00:03:54;31.50;;;17.87;;
59418;SDS011;45224;50.904;6.038;2022-12-08T00:05:25;33.50;;;17.45;;
59418;SDS011;45224;50.904;6.038;2022-12-08T00:07:14;31.85;;;16.45;;
59418;SDS011;45224;50.904;6.038;2022-12-08T00:09:03;31.27;;;16.13;;
59418;SDS011;45224;50.904;6.038;2022-12-08T00:10:51;32.20;;;17.05;;
59418;SDS011;45224;50.904;6.038;2022-12-08T00:12:22;33.40;;;16.80;;
59418;SDS011;45224;50.904;6.038;2022-12-08T00:13:52;29.17;;;15.23;;
59418;SDS011;45224;50.904;6.038;2022-12-08T00:15:22;28.30;;;15.57;;
59418;SDS011;45224;50.904;6.038;2022-12-08T00:16:53;28.17;;;15.77;;
59418;SDS011;45224;50.904;6.038;2022-12-08T00:18:24;31.65;;;15.77;;
59418;SDS011;45224;50.904;6.038;2022-12-08T00:19:54;27.33;;;15.10;;
59418;SDS011;45224;50.904;6.038;2022-12-08T00:21:24;32.50;;;15.70;;
59418;SDS011;45224;50.904;6.038;2022-12-08T00:22:55;31.30;;;16.23;;
59418;SDS011;45224;50.904;6.038;2022-12-08T00:24:28;31.47;;;16.73;;
59418;SDS011;45224;50.904;6.038;2022-12-08T00:26:01;32.60;;;16.33;;
59418;SDS011;45224;50.904;6.038;2022-12-08T00:27:33;32.63;;;16.80;;
59418;SDS011;45224;50.904;6.038;2022-12-08T00:29:03;45.50;;;16.93;;
59418;SDS011;45224;50.904;6.038;2022-12-08T00:30:34;38.55;;;16.90;;
59418;SDS011;45224;50.904;6.038;2022-12-08T00:32:08;31.60;;;15.18;;
59418;SDS011;45224;50.904;6.038;2022-12-08T00:33:38;32.60;;;15.07;;
59418;SDS011;45224;50.904;6.038;2022-12-08T00:35:09;34.28;;;16.50;;
59418;SDS011;45224;50.904;6.038;2022-12-08T00:36:40;31.20;;;15.33;;
59418;SDS011;45224;50.904;6.038;2022-12-08T00:39:41;33.72;;;14.35;;
59418;SDS011;45224;50.904;6.038;2022-12-08T00:41:12;32.40;;;16.13;;
59418;SDS011;45224;50.904;6.038;2022-12-08T00:42:48;26.08;;;13.88;;
59418;SDS011;45224;50.904;6.038;2022-12-08T00:44:19;33.67;;;16.23;;
59418;SDS011;45224;50.904;6.038;2022-12-08T00:45:49;30.83;;;15.10;;
59418;SDS011;45224;50.904;6.038;2022-12-08T00:47:20;27.70;;;14.33;;
59418;SDS011;45224;50.904;6.038;2022-12-08T00:48:50;32.93;;;14.60;;
59418;SDS011;45224;50.904;6.038;2022-12-08T00:50:20;31.30;;;14.13;;
59418;SDS011;45224;50.904;6.038;2022-12-08T00:51:51;29.63;;;14.17;;
59418;SDS011;45224;50.904;6.038;2022-12-08T00:53:21;28.70;;;14.30;;
59418;SDS011;45224;50.904;6.038;2022-12-08T00:54:52;29.73;;;13.67;;
59418;SDS011;45224;50.904;6.038;2022-12-08T00:56:22;28.17;;;13.50;;
59418;SDS011;45224;50.904;6.038;2022-12-08T00:57:53;26.23;;;13.50;;
59418;SDS011;45224;50.904;6.038;2022-12-08T00:59:23;25.67;;;13.40;;
59418;SDS011;45224;50.904;6.038;2022-12-08T01:00:54;24.43;;;12.87;;
59418;SDS011;45224;50.904;6.038;2022-12-08T01:02:24;23.10;;;13.50;;
59418;SDS011;45224;50.904;6.038;2022-12-08T01:03:55;28.40;;;13.40;;
59418;SDS011;45224;50.904;6.038;2022-12-08T01:05:25;26.27;;;13.13;;
59418;SDS011;45224;50.904;6.038;2022-12-08T01:06:56;23.07;;;11.87;;
59418;SDS011;45224;50.904;6.038;2022-12-08T01:08:26;20.17;;;11.83;;
59418;SDS011;45224;50.904;6.038;2022-12-08T01:09:57;19.73;;;11.10;;
59418;SDS011;45224;50.904;6.038;2022-12-08T01:11:27;19.93;;;11.00;;
59418;SDS011;45224;50.904;6.038;2022-12-08T01:12:58;23.67;;;12.20;;
59418;SDS011;45224;50.904;6.038;2022-12-08T01:14:28;24.77;;;11.53;;
59418;SDS011;45224;50.904;6.038;2022-12-08T01:15:58;19.60;;;10.47;;
59418;SDS011;45224;50.904;6.038;2022-12-08T01:17:29;23.13;;;10.67;;
59418;SDS011;45224;50.904;6.038;2022-12-08T01:18:59;23.77;;;11.23;;
59418;SDS011;45224;50.904;6.038;2022-12-08T01:20:30;19.90;;;10.97;;
59418;SDS011;45224;50.904;6.038;2022-12-08T01:22:00;18.47;;;10.23;;
59418;SDS011;45224;50.904;6.038;2022-12-08T01:23:31;23.33;;;11.13;;
59418;SDS011;45224;50.904;6.038;2022-12-08T01:25:02;18.13;;;10.55;;
59418;SDS011;45224;50.904;6.038;2022-12-08T01:26:33;17.60;;;10.50;;
59418;SDS011;45224;50.904;6.038;2022-12-08T01:28:03;17.47;;;9.53;;
59418;SDS011;45224;50.904;6.038;2022-12-08T01:29:34;23.13;;;9.70;;
59418;SDS011;45224;50.904;6.038;2022-12-08T01:31:08;18.43;;;9.57;;
59418;SDS011;45224;50.904;6.038;2022-12-08T01:32:44;17.10;;;9.50;;
59418;SDS011;45224;50.904;6.038;2022-12-08T01:34:14;18.10;;;9.57;;
59418;SDS011;45224;50.904;6.038;2022-12-08T01:35:45;17.70;;;9.30;;
59418;SDS011;45224;50.904;6.038;2022-12-08T01:37:15;17.43;;;9.67;;
59418;SDS011;45224;50.904;6.038;2022-12-08T01:38:46;15.93;;;9.57;;
59418;SDS011;45224;50.904;6.038;2022-12-08T01:40:17;19.60;;;10.00;;
59418;SDS011;45224;50.904;6.038;2022-12-08T01:41:47;20.87;;;9.53;;
59418;SDS011;45224;50.904;6.038;2022-12-08T01:43:18;15.77;;;8.77;;
59418;SDS011;45224;50.904;6.038;2022-12-08T01:46:32;17.65;;;9.00;;
59418;SDS011;45224;50.904;6.038;2022-12-08T01:48:05;15.02;;;9.25;;
59418;SDS011;45224;50.904;6.038;2022-12-08T01:49:39;18.05;;;9.95;;
59418;SDS011;45224;50.904;6.038;2022-12-08T01:51:09;16.73;;;9.03;;
59418;SDS011;45224;50.904;6.038;2022-12-08T01:52:42;17.10;;;9.60;;
59418;SDS011;45224;50.904;6.038;2022-12-08T01:54:18;17.92;;;9.30;;
59418;SDS011;45224;50.904;6.038;2022-12-08T01:56:06;20.65;;;9.57;;
59418;SDS011;45224;50.904;6.038;2022-12-08T01:57:44;19.83;;;10.15;;
59418;SDS011;45224;50.904;6.038;2022-12-08T01:59:17;19.27;;;8.70;;
59418;SDS011;45224;50.904;6.038;2022-12-08T02:00:53;17.48;;;9.15;;
59418;SDS011;45224;50.904;6.038;2022-12-08T02:02:25;20.67;;;9.40;;
59418;SDS011;45224;50.904;6.038;2022-12-08T02:04:01;16.95;;;9.60;;
59418;SDS011;45224;50.904;6.038;2022-12-08T02:05:34;18.77;;;9.75;;
59418;SDS011;45224;50.904;6.038;2022-12-08T02:07:07;16.88;;;9.50;;
59418;SDS011;45224;50.904;6.038;2022-12-08T02:08:40;23.13;;;11.13;;
59418;SDS011;45224;50.904;6.038;2022-12-08T02:10:13;23.65;;;11.40;;
59418;SDS011;45224;50.904;6.038;2022-12-08T02:11:46;19.83;;;9.70;;
59418;SDS011;45224;50.904;6.038;2022-12-08T02:13:18;19.92;;;10.82;;
59418;SDS011;45224;50.904;6.038;2022-12-08T02:14:50;18.60;;;10.60;;
59418;SDS011;45224;50.904;6.038;2022-12-08T02:18:18;22.27;;;10.63;;
59418;SDS011;45224;50.904;6.038;2022-12-08T02:20:05;23.23;;;10.75;;
59418;SDS011;45224;50.904;6.038;2022-12-08T02:27:15;21.42;;;10.90;;
59418;SDS011;45224;50.904;6.038;2022-12-08T02:32:42;22.25;;;10.70;;
59418;SDS011;45224;50.904;6.038;2022-12-08T02:37:48;26.70;;;11.45;;
59418;SDS011;45224;50.904;6.038;2022-12-08T02:41:40;26.65;;;12.05;;
59418;SDS011;45224;50.904;6.038;2022-12-08T02:46:46;24.85;;;13.43;;
59418;SDS011;45224;50.904;6.038;2022-12-08T02:48:21;25.38;;;12.88;;
59418;SDS011;45224;50.904;6.038;2022-12-08T02:49:53;24.43;;;12.40;;
59418;SDS011;45224;50.904;6.038;2022-12-08T02:51:24;28.65;;;13.23;;
59418;SDS011;45224;50.904;6.038;2022-12-08T02:52:55;31.77;;;12.95;;
59418;SDS011;45224;50.904;6.038;2022-12-08T02:54:25;28.17;;;14.20;;
59418;SDS011;45224;50.904;6.038;2022-12-08T03:04:51;31.30;;;14.45;;
59418;SDS011;45224;50.904;6.038;2022-12-08T03:09:53;34.43;;;15.03;;
59418;SDS011;45224;50.904;6.038;2022-12-08T03:13:14;33.97;;;15.23;;
59418;SDS011;45224;50.904;6.038;2022-12-08T03:16:23;34.88;;;15.77;;
59418;SDS011;45224;50.904;6.038;2022-12-08T03:17:56;34.22;;;15.68;;
59418;SDS011;45224;50.904;6.038;2022-12-08T03:19:30;36.55;;;16.73;;
59418;SDS011;45224;50.904;6.038;2022-12-08T03:21:03;35.40;;;15.73;;
59418;SDS011;45224;50.904;6.038;2022-12-08T03:22:36;35.05;;;15.48;;
59418;SDS011;45224;50.904;6.038;2022-12-08T03:24:09;36.05;;;15.75;;
59418;SDS011;45224;50.904;6.038;2022-12-08T03:25:50;39.45;;;16.85;;
59418;SDS011;45224;50.904;6.038;2022-12-08T03:27:27;40.65;;;17.25;;
59418;SDS011;45224;50.904;6.038;2022-12-08T03:29:00;38.63;;;18.60;;
59418;SDS011;45224;50.904;6.038;2022-12-08T03:30:31;44.28;;;18.52;;
59418;SDS011;45224;50.904;6.038;2022-12-08T03:32:13;41.70;;;17.30;;
59418;SDS011;45224;50.904;6.038;2022-12-08T03:33:45;47.92;;;19.00;;
59418;SDS011;45224;50.904;6.038;2022-12-08T03:35:22;44.35;;;18.83;;
59418;SDS011;45224;50.904;6.038;2022-12-08T03:36:55;43.17;;;18.70;;
59418;SDS011;45224;50.904;6.038;2022-12-08T03:38:25;41.50;;;18.60;;
59418;SDS011;45224;50.904;6.038;2022-12-08T03:40:06;40.92;;;19.15;;
59418;SDS011;45224;50.904;6.038;2022-12-08T03:41:40;41.78;;;18.15;;
59418;SDS011;45224;50.904;6.038;2022-12-08T03:43:10;49.43;;;19.70;;
59418;SDS011;45224;50.904;6.038;2022-12-08T03:44:41;47.70;;;19.87;;
59418;SDS011;45224;50.904;6.038;2022-12-08T03:46:11;45.57;;;19.07;;
59418;SDS011;45224;50.904;6.038;2022-12-08T03:47:42;48.70;;;20.45;;
59418;SDS011;45224;50.904;6.038;2022-12-08T03:49:12;46.40;;;20.30;;
59418;SDS011;45224;50.904;6.038;2022-12-08T03:50:43;45.73;;;19.17;;
59418;SDS011;45224;50.904;6.038;2022-12-08T03:52:14;44.43;;;18.17;;
59418;SDS011;45224;50.904;6.038;2022-12-08T03:53:45;48.03;;;19.83;;
59418;SDS011;45224;50.904;6.038;2022-12-08T03:55:16;50.08;;;21.95;;
59418;SDS011;45224;50.904;6.038;2022-12-08T03:56:47;49.30;;;20.83;;
59418;SDS011;45224;50.904;6.038;2022-12-08T03:58:17;47.00;;;20.23;;
59418;SDS011;45224;50.904;6.038;2022-12-08T03:59:48;53.93;;;21.67;;
59418;SDS011;45224;50.904;6.038;2022-12-08T04:01:18;48.23;;;19.63;;
59418;SDS011;45224;50.904;6.038;2022-12-08T04:02:49;48.80;;;21.45;;
59418;SDS011;45224;50.904;6.038;2022-12-08T04:04:19;51.93;;;20.70;;
59418;SDS011;45224;50.904;6.038;2022-12-08T04:05:50;41.70;;;18.17;;
59418;SDS011;45224;50.904;6.038;2022-12-08T04:07:20;45.03;;;19.97;;
59418;SDS011;45224;50.904;6.038;2022-12-08T04:08:51;44.90;;;20.03;;
59418;SDS011;45224;50.904;6.038;2022-12-08T04:10:21;50.10;;;20.90;;
59418;SDS011;45224;50.904;6.038;2022-12-08T04:11:52;46.67;;;19.07;;
59418;SDS011;45224;50.904;6.038;2022-12-08T04:13:22;49.73;;;19.63;;
59418;SDS011;45224;50.904;6.038;2022-12-08T04:14:53;44.40;;;17.70;;
59418;SDS011;45224;50.904;6.038;2022-12-08T04:16:23;50.53;;;19.80;;
59418;SDS011;45224;50.904;6.038;2022-12-08T04:17:55;46.13;;;19.48;;
59418;SDS011;45224;50.904;6.038;2022-12-08T04:19:26;51.83;;;19.57;;
59418;SDS011;45224;50.904;6.038;2022-12-08T04:20:56;47.80;;;19.40;;
59418;SDS011;45224;50.904;6.038;2022-12-08T04:22:27;44.57;;;17.83;;
59418;SDS011;45224;50.904;6.038;2022-12-08T04:23:57;43.90;;;19.07;;
59418;SDS011;45224;50.904;6.038;2022-12-08T04:25:27;51.23;;;17.90;;
59418;SDS011;45224;50.904;6.038;2022-12-08T04:26:58;44.80;;;19.03;;
59418;SDS011;45224;50.904;6.038;2022-12-08T04:28:28;43.40;;;19.20;;
59418;SDS011;45224;50.904;6.038;2022-12-08T04:29:59;50.67;;;19.00;;
59418;SDS011;45224;50.904;6.038;2022-12-08T04:31:29;45.77;;;19.20;;
59418;SDS011;45224;50.904;6.038;2022-12-08T04:33:00;43.87;;;18.53;;
59418;SDS011;45224;50.904;6.038;2022-12-08T04:34:30;47.30;;;17.90;;
59418;SDS011;45224;50.904;6.038;2022-12-08T04:36:01;47.70;;;18.03;;
59418;SDS011;45224;50.904;6.038;2022-12-08T04:37:33;44.75;;;17.83;;
59418;SDS011;45224;50.904;6.038;2022-12-08T04:39:04;46.87;;;17.77;;
59418;SDS011;45224;50.904;6.038;2022-12-08T04:40:34;54.72;;;18.73;;
59418;SDS011;45224;50.904;6.038;2022-12-08T04:42:05;48.20;;;18.87;;
59418;SDS011;45224;50.904;6.038;2022-12-08T04:43:35;44.87;;;18.70;;
59418;SDS011;45224;50.904;6.038;2022-12-08T04:45:06;45.20;;;19.80;;
59418;SDS011;45224;50.904;6.038;2022-12-08T04:46:37;42.87;;;18.97;;
59418;SDS011;45224;50.904;6.038;2022-12-08T04:48:07;43.33;;;17.60;;
59418;SDS011;45224;50.904;6.038;2022-12-08T04:49:38;47.85;;;18.25;;
59418;SDS011;45224;50.904;6.038;2022-12-08T04:51:13;46.57;;;17.80;;
59418;SDS011;45224;50.904;6.038;2022-12-08T04:52:45;46.15;;;19.23;;
59418;SDS011;45224;50.904;6.038;2022-12-08T04:54:16;44.00;;;17.87;;
59418;SDS011;45224;50.904;6.038;2022-12-08T04:55:46;51.60;;;18.13;;
59418;SDS011;45224;50.904;6.038;2022-12-08T04:57:20;42.95;;;17.52;;
59418;SDS011;45224;50.904;6.038;2022-12-08T04:58:50;46.77;;;18.10;;
59418;SDS011;45224;50.904;6.038;2022-12-08T05:00:21;45.17;;;18.07;;
59418;SDS011;45224;50.904;6.038;2022-12-08T05:01:51;47.70;;;18.20;;
59418;SDS011;45224;50.904;6.038;2022-12-08T05:03:22;45.77;;;18.17;;
59418;SDS011;45224;50.904;6.038;2022-12-08T05:04:52;43.13;;;17.63;;
59418;SDS011;45224;50.904;6.038;2022-12-08T05:06:23;50.33;;;19.00;;
59418;SDS011;45224;50.904;6.038;2022-12-08T05:07:53;38.70;;;15.67;;
59418;SDS011;45224;50.904;6.038;2022-12-08T05:09:24;46.50;;;18.30;;
59418;SDS011;45224;50.904;6.038;2022-12-08T05:11:01;47.53;;;17.43;;
59418;SDS011;45224;50.904;6.038;2022-12-08T05:12:33;40.50;;;16.05;;
59418;SDS011;45224;50.904;6.038;2022-12-08T05:14:04;44.37;;;18.43;;
59418;SDS011;45224;50.904;6.038;2022-12-08T05:15:34;45.33;;;18.33;;
59418;SDS011;45224;50.904;6.038;2022-12-08T05:17:05;39.57;;;16.83;;
59418;SDS011;45224;50.904;6.038;2022-12-08T05:18:35;44.57;;;17.47;;
59418;SDS011;45224;50.904;6.038;2022-12-08T05:20:07;38.58;;;17.00;;
59418;SDS011;45224;50.904;6.038;2022-12-08T05:21:39;47.78;;;18.88;;
59418;SDS011;45224;50.904;6.038;2022-12-08T05:23:10;44.17;;;17.63;;
59418;SDS011;45224;50.904;6.038;2022-12-08T05:24:40;38.87;;;17.13;;
59418;SDS011;45224;50.904;6.038;2022-12-08T05:26:11;47.63;;;17.33;;
59418;SDS011;45224;50.904;6.038;2022-12-08T05:27:41;37.53;;;16.47;;
59418;SDS011;45224;50.904;6.038;2022-12-08T05:29:12;46.97;;;17.92;;
59418;SDS011;45224;50.904;6.038;2022-12-08T05:30:42;41.30;;;15.60;;
59418;SDS011;45224;50.904;6.038;2022-12-08T05:32:13;45.43;;;17.83;;
59418;SDS011;45224;50.904;6.038;2022-12-08T05:33:44;39.37;;;14.97;;
59418;SDS011;45224;50.904;6.038;2022-12-08T05:36:45;37.10;;;15.00;;
59418;SDS011;45224;50.904;6.038;2022-12-08T05:38:16;41.93;;;16.10;;
59418;SDS011;45224;50.904;6.038;2022-12-08T05:39:46;42.83;;;16.83;;
59418;SDS011;45224;50.904;6.038;2022-12-08T05:41:18;37.27;;;15.87;;
59418;SDS011;45224;50.904;6.038;2022-12-08T05:42:49;47.72;;;17.55;;
59418;SDS011;45224;50.904;6.038;2022-12-08T05:44:20;48.27;;;16.87;;
59418;SDS011;45224;50.904;6.038;2022-12-08T05:45:50;43.23;;;15.93;;
59418;SDS011;45224;50.904;6.038;2022-12-08T05:47:21;36.50;;;15.63;;
59418;SDS011;45224;50.904;6.038;2022-12-08T05:48:51;37.93;;;16.43;;
59418;SDS011;45224;50.904;6.038;2022-12-08T05:50:21;43.83;;;15.80;;
59418;SDS011;45224;50.904;6.038;2022-12-08T05:51:52;43.07;;;16.63;;
59418;SDS011;45224;50.904;6.038;2022-12-08T05:53:22;40.27;;;15.33;;
59418;SDS011;45224;50.904;6.038;2022-12-08T05:54:53;40.57;;;15.80;;
59418;SDS011;45224;50.904;6.038;2022-12-08T05:56:23;38.67;;;15.43;;
59418;SDS011;45224;50.904;6.038;2022-12-08T05:57:54;39.70;;;16.53;;
59418;SDS011;45224;50.904;6.038;2022-12-08T05:59:24;40.27;;;15.50;;
59418;SDS011;45224;50.904;6.038;2022-12-08T06:00:55;37.57;;;16.43;;
59418;SDS011;45224;50.904;6.038;2022-12-08T06:02:25;36.63;;;15.77;;
59418;SDS011;45224;50.904;6.038;2022-12-08T06:03:56;37.70;;;14.93;;
59418;SDS011;45224;50.904;6.038;2022-12-08T06:05:28;34.40;;;14.25;;
59418;SDS011;45224;50.904;6.038;2022-12-08T06:06:58;40.97;;;16.03;;
59418;SDS011;45224;50.904;6.038;2022-12-08T06:08:29;39.23;;;17.17;;
59418;SDS011;45224;50.904;6.038;2022-12-08T06:09:59;38.00;;;15.83;;
59418;SDS011;45224;50.904;6.038;2022-12-08T06:11:30;39.37;;;15.13;;
59418;SDS011;45224;50.904;6.038;2022-12-08T06:14:31;37.40;;;15.90;;
59418;SDS011;45224;50.904;6.038;2022-12-08T06:16:03;34.67;;;15.00;;
59418;SDS011;45224;50.904;6.038;2022-12-08T06:17:34;42.22;;;16.42;;
59418;SDS011;45224;50.904;6.038;2022-12-08T06:19:05;31.23;;;13.93;;
59418;SDS011;45224;50.904;6.038;2022-12-08T06:20:35;38.60;;;16.00;;
59418;SDS011;45224;50.904;6.038;2022-12-08T06:22:06;41.83;;;16.43;;
59418;SDS011;45224;50.904;6.038;2022-12-08T06:23:36;50.00;;;16.20;;
59418;SDS011;45224;50.904;6.038;2022-12-08T06:25:07;44.58;;;17.58;;
59418;SDS011;45224;50.904;6.038;2022-12-08T06:26:38;34.22;;;14.80;;
59418;SDS011;45224;50.904;6.038;2022-12-08T06:28:10;35.08;;;15.07;;
59418;SDS011;45224;50.904;6.038;2022-12-08T06:29:40;37.07;;;15.70;;
59418;SDS011;45224;50.904;6.038;2022-12-08T06:31:15;33.60;;;15.00;;
59418;SDS011;45224;50.904;6.038;2022-12-08T06:32:48;40.50;;;17.40;;
59418;SDS011;45224;50.904;6.038;2022-12-08T06:34:18;36.90;;;16.10;;
59418;SDS011;45224;50.904;6.038;2022-12-08T06:35:49;37.87;;;16.20;;
59418;SDS011;45224;50.904;6.038;2022-12-08T06:37:19;36.67;;;15.47;;
59418;SDS011;45224;50.904;6.038;2022-12-08T06:38:50;37.73;;;16.83;;
59418;SDS011;45224;50.904;6.038;2022-12-08T06:40:20;35.47;;;15.77;;
59418;SDS011;45224;50.904;6.038;2022-12-08T06:41:51;41.07;;;16.97;;
59418;SDS011;45224;50.904;6.038;2022-12-08T06:43:40;40.03;;;16.08;;
59418;SDS011;45224;50.904;6.038;2022-12-08T06:45:13;35.13;;;15.05;;
59418;SDS011;45224;50.904;6.038;2022-12-08T06:46:44;46.55;;;16.58;;
59418;SDS011;45224;50.904;6.038;2022-12-08T06:48:15;36.30;;;15.03;;
59418;SDS011;45224;50.904;6.038;2022-12-08T06:49:46;35.10;;;15.10;;
59418;SDS011;45224;50.904;6.038;2022-12-08T06:51:18;37.17;;;15.13;;
59418;SDS011;45224;50.904;6.038;2022-12-08T06:52:51;36.33;;;14.98;;
59418;SDS011;45224;50.904;6.038;2022-12-08T06:54:21;42.47;;;16.00;;
59418;SDS011;45224;50.904;6.038;2022-12-08T06:55:52;36.93;;;16.03;;
59418;SDS011;45224;50.904;6.038;2022-12-08T06:57:22;35.83;;;14.65;;
59418;SDS011;45224;50.904;6.038;2022-12-08T06:58:53;37.17;;;15.20;;
59418;SDS011;45224;50.904;6.038;2022-12-08T07:00:24;34.40;;;14.43;;
59418;SDS011;45224;50.904;6.038;2022-12-08T07:01:54;32.80;;;14.40;;
59418;SDS011;45224;50.904;6.038;2022-12-08T07:03:25;36.30;;;14.40;;
59418;SDS011;45224;50.904;6.038;2022-12-08T07:04:55;36.47;;;15.43;;
59418;SDS011;45224;50.904;6.038;2022-12-08T07:06:25;31.27;;;14.27;;
59418;SDS011;45224;50.904;6.038;2022-12-08T07:07:56;33.17;;;14.33;;
59418;SDS011;45224;50.904;6.038;2022-12-08T07:09:26;35.50;;;15.63;;
59418;SDS011;45224;50.904;6.038;2022-12-08T07:10:57;29.27;;;12.85;;
59418;SDS011;45224;50.904;6.038;2022-12-08T07:12:28;37.08;;;15.07;;
59418;SDS011;45224;50.904;6.038;2022-12-08T07:13:58;30.60;;;14.00;;
59418;SDS011;45224;50.904;6.038;2022-12-08T07:15:29;37.33;;;13.03;;
59418;SDS011;45224;50.904;6.038;2022-12-08T07:16:59;30.80;;;13.80;;
59418;SDS011;45224;50.904;6.038;2022-12-08T07:18:31;31.15;;;13.32;;
59418;SDS011;45224;50.904;6.038;2022-12-08T07:20:01;35.63;;;14.07;;
59418;SDS011;45224;50.904;6.038;2022-12-08T07:21:32;36.60;;;14.98;;
59418;SDS011;45224;50.904;6.038;2022-12-08T07:23:03;32.20;;;14.00;;
59418;SDS011;45224;50.904;6.038;2022-12-08T07:24:33;27.93;;;12.60;;
59418;SDS011;45224;50.904;6.038;2022-12-08T07:26:04;31.47;;;13.40;;
59418;SDS011;45224;50.904;6.038;2022-12-08T07:27:37;29.73;;;13.25;;
59418;SDS011;45224;50.904;6.038;2022-12-08T07:30:39;25.05;;;11.27;;
59418;SDS011;45224;50.904;6.038;2022-12-08T07:32:10;27.80;;;12.93;;
59418;SDS011;45224;50.904;6.038;2022-12-08T07:33:40;28.33;;;12.50;;
59418;SDS011;45224;50.904;6.038;2022-12-08T07:35:11;24.30;;;12.13;;
59418;SDS011;45224;50.904;6.038;2022-12-08T07:36:41;23.83;;;11.50;;
59418;SDS011;45224;50.904;6.038;2022-12-08T07:38:12;29.03;;;11.60;;
59418;SDS011;45224;50.904;6.038;2022-12-08T07:39:42;25.20;;;12.27;;
59418;SDS011;45224;50.904;6.038;2022-12-08T07:41:14;24.73;;;11.32;;
59418;SDS011;45224;50.904;6.038;2022-12-08T07:42:48;28.30;;;12.85;;
59418;SDS011;45224;50.904;6.038;2022-12-08T07:44:19;25.20;;;11.37;;
59418;SDS011;45224;50.904;6.038;2022-12-08T07:45:49;24.17;;;11.83;;
59418;SDS011;45224;50.904;6.038;2022-12-08T07:47:20;28.65;;;11.75;;
59418;SDS011;45224;50.904;6.038;2022-12-08T07:48:51;26.90;;;12.33;;
59418;SDS011;45224;50.904;6.038;2022-12-08T07:50:23;26.83;;;12.27;;
59418;SDS011;45224;50.904;6.038;2022-12-08T07:51:53;25.48;;;12.30;;
59418;SDS011;45224;50.904;6.038;2022-12-08T07:53:24;30.40;;;13.20;;
59418;SDS011;45224;50.904;6.038;2022-12-08T07:54:54;31.20;;;13.77;;
59418;SDS011;45224;50.904;6.038;2022-12-08T07:56:24;27.50;;;13.53;;
59418;SDS011;45224;50.904;6.038;2022-12-08T07:57:55;26.33;;;12.77;;
59418;SDS011;45224;50.904;6.038;2022-12-08T07:59:25;29.17;;;13.23;;
59418;SDS011;45224;50.904;6.038;2022-12-08T08:00:56;30.10;;;13.50;;
59418;SDS011;45224;50.904;6.038;2022-12-08T08:02:26;29.20;;;13.37;;
59418;SDS011;45224;50.904;6.038;2022-12-08T08:03:57;27.67;;;13.70;;
59418;SDS011;45224;50.904;6.038;2022-12-08T08:05:34;30.33;;;13.30;;
59418;SDS011;45224;50.904;6.038;2022-12-08T08:07:04;30.33;;;12.93;;
59418;SDS011;45224;50.904;6.038;2022-12-08T08:08:34;27.30;;;13.20;;
59418;SDS011;45224;50.904;6.038;2022-12-08T08:10:05;26.00;;;13.33;;
59418;SDS011;45224;50.904;6.038;2022-12-08T08:11:36;25.80;;;12.50;;
59418;SDS011;45224;50.904;6.038;2022-12-08T08:13:07;22.27;;;12.13;;
59418;SDS011;45224;50.904;6.038;2022-12-08T08:14:37;26.45;;;13.52;;
59418;SDS011;45224;50.904;6.038;2022-12-08T08:16:09;25.90;;;12.60;;
59418;SDS011;45224;50.904;6.038;2022-12-08T08:17:40;27.48;;;12.18;;
59418;SDS011;45224;50.904;6.038;2022-12-08T08:19:10;23.93;;;12.13;;
59418;SDS011;45224;50.904;6.038;2022-12-08T08:20:41;27.67;;;12.87;;
59418;SDS011;45224;50.904;6.038;2022-12-08T08:22:11;22.83;;;12.27;;
59418;SDS011;45224;50.904;6.038;2022-12-08T08:23:42;24.43;;;12.03;;
59418;SDS011;45224;50.904;6.038;2022-12-08T08:25:13;29.87;;;12.80;;
59418;SDS011;45224;50.904;6.038;2022-12-08T08:26:43;24.17;;;11.68;;
59418;SDS011;45224;50.904;6.038;2022-12-08T08:28:14;32.60;;;13.30;;
59418;SDS011;45224;50.904;6.038;2022-12-08T08:29:44;28.23;;;12.67;;
59418;SDS011;45224;50.904;6.038;2022-12-08T08:31:15;27.23;;;12.70;;
59418;SDS011;45224;50.904;6.038;2022-12-08T08:32:46;29.80;;;12.93;;
59418;SDS011;45224;50.904;6.038;2022-12-08T08:34:16;26.85;;;13.05;;
59418;SDS011;45224;50.904;6.038;2022-12-08T08:35:47;25.53;;;12.60;;
59418;SDS011;45224;50.904;6.038;2022-12-08T08:37:17;27.17;;;12.57;;
59418;SDS011;45224;50.904;6.038;2022-12-08T08:38:48;26.40;;;12.33;;
59418;SDS011;45224;50.904;6.038;2022-12-08T08:40:18;26.67;;;13.23;;
59418;SDS011;45224;50.904;6.038;2022-12-08T08:41:49;26.43;;;13.03;;
59418;SDS011;45224;50.904;6.038;2022-12-08T08:43:19;30.20;;;13.27;;
59418;SDS011;45224;50.904;6.038;2022-12-08T08:44:59;27.63;;;13.55;;
59418;SDS011;45224;50.904;6.038;2022-12-08T08:46:29;27.17;;;12.87;;
59418;SDS011;45224;50.904;6.038;2022-12-08T08:48:00;26.27;;;12.97;;
59418;SDS011;45224;50.904;6.038;2022-12-08T08:49:30;29.27;;;12.87;;
59418;SDS011;45224;50.904;6.038;2022-12-08T08:51:08;27.33;;;12.73;;
59418;SDS011;45224;50.904;6.038;2022-12-08T08:52:40;29.38;;;14.05;;
59418;SDS011;45224;50.904;6.038;2022-12-08T08:54:11;34.35;;;15.43;;
59418;SDS011;45224;50.904;6.038;2022-12-08T08:55:42;33.17;;;14.27;;
59418;SDS011;45224;50.904;6.038;2022-12-08T08:57:12;31.07;;;14.67;;
59418;SDS011;45224;50.904;6.038;2022-12-08T08:58:43;37.20;;;15.60;;
59418;SDS011;45224;50.904;6.038;2022-12-08T09:00:13;31.57;;;14.80;;
59418;SDS011;45224;50.904;6.038;2022-12-08T09:01:44;33.15;;;15.05;;
59418;SDS011;45224;50.904;6.038;2022-12-08T09:03:15;35.70;;;15.47;;
59418;SDS011;45224;50.904;6.038;2022-12-08T09:04:45;27.93;;;14.00;;
59418;SDS011;45224;50.904;6.038;2022-12-08T09:06:16;38.73;;;15.13;;
59418;SDS011;45224;50.904;6.038;2022-12-08T09:07:47;40.25;;;16.83;;
59418;SDS011;45224;50.904;6.038;2022-12-08T09:09:17;35.50;;;15.03;;
59418;SDS011;45224;50.904;6.038;2022-12-08T09:10:48;31.90;;;15.03;;
59418;SDS011;45224;50.904;6.038;2022-12-08T09:12:18;34.57;;;15.37;;
59418;SDS011;45224;50.904;6.038;2022-12-08T09:13:50;41.23;;;16.40;;
59418;SDS011;45224;50.904;6.038;2022-12-08T09:15:21;34.55;;;15.75;;
59418;SDS011;45224;50.904;6.038;2022-12-08T09:16:51;41.53;;;17.17;;
59418;SDS011;45224;50.904;6.038;2022-12-08T09:18:22;125.73;;;38.93;;
59418;SDS011;45224;50.904;6.038;2022-12-08T09:19:52;57.20;;;22.87;;
59418;SDS011;45224;50.904;6.038;2022-12-08T09:21:23;65.83;;;23.97;;
59418;SDS011;45224;50.904;6.038;2022-12-08T09:22:55;67.85;;;25.80;;
59418;SDS011;45224;50.904;6.038;2022-12-08T09:24:27;72.40;;;29.33;;
59418;SDS011;45224;50.904;6.038;2022-12-08T09:25:57;64.97;;;24.73;;
59418;SDS011;45224;50.904;6.038;2022-12-08T09:27:28;73.70;;;26.90;;
59418;SDS011;45224;50.904;6.038;2022-12-08T09:29:00;146.27;;;41.42;;
59418;SDS011;45224;50.904;6.038;2022-12-08T09:30:30;90.40;;;30.00;;
59418;SDS011;45224;50.904;6.038;2022-12-08T09:32:01;72.50;;;26.47;;
59418;SDS011;45224;50.904;6.038;2022-12-08T09:33:31;106.67;;;33.57;;
59418;SDS011;45224;50.904;6.038;2022-12-08T09:35:01;59.87;;;21.87;;
59418;SDS011;45224;50.904;6.038;2022-12-08T09:36:32;54.22;;;20.05;;
59418;SDS011;45224;50.904;6.038;2022-12-08T09:38:03;38.70;;;17.83;;
59418;SDS011;45224;50.904;6.038;2022-12-08T09:39:34;40.65;;;16.65;;
59418;SDS011;45224;50.904;6.038;2022-12-08T09:41:11;36.97;;;15.00;;